Time;durP1;ratioP1;P1;durP2;ratioP2;P2;SDS_P1;SDS_P2;PMS_P1;PMS_P2;Temp;Humidity;BMP_temperature;BMP_pressure;BME280_temperature;BME280_humidity;BME280_pressure;Samples;Min_cycle;Max_cycle;Signal;HPM_P1;HPM_P2
2022/05/02 00:01:01;;;;;;;9.98;7.30;;;;;;;;;;5020566;28;20437;-67
2022/05/02 00:03:27;;;;;;;8.18;7.05;;;;;;;;;;5018798;28;20037;-67
2022/05/02 00:05:55;;;;;;;7.30;6.50;;;;;;;;;;5022501;28;20037;-67
2022/05/02 00:08:21;;;;;;;9.13;6.22;;;;;;;;;;5016704;28;20064;-67
2022/05/02 00:10:47;;;;;;;9.18;7.15;;;;;;;;;;5036745;28;20136;-67
2022/05/02 00:13:13;;;;;;;10.15;6.93;;;;;;;;;;5025938;28;20048;-67
2022/05/02 00:15:39;;;;;;;9.00;6.40;;;;;;;;;;5035828;28;20041;-67
2022/05/02 00:18:05;;;;;;;9.02;6.63;;;;;;;;;;5022913;28;20080;-67
2022/05/02 00:20:36;;;;;;;8.55;6.35;;;;;;;;;;5025816;28;20061;-67
2022/05/02 00:23:05;;;;;;;9.82;7.47;;;;;;;;;;5025932;28;20038;-67
2022/05/02 00:25:31;;;;;;;8.68;6.68;;;;;;;;;;5025995;28;20068;-67
2022/05/02 00:27:57;;;;;;;9.70;6.97;;;;;;;;;;5028315;28;20156;-67
2022/05/02 00:30:24;;;;;;;8.95;6.70;;;;;;;;;;5024826;28;20119;-67
2022/05/02 00:32:50;;;;;;;8.88;6.82;;;;;;;;;;5023112;28;20029;-67
2022/05/02 00:35:16;;;;;;;10.02;6.68;;;;;;;;;;5025121;28;20033;-67
2022/05/02 00:37:43;;;;;;;9.57;6.63;;;;;;;;;;5024748;28;20123;-67
2022/05/02 00:40:10;;;;;;;8.52;6.35;;;;;;;;;;5008407;28;20037;-67
2022/05/02 00:42:37;;;;;;;10.43;7.10;;;;;;;;;;5016294;28;20048;-67
2022/05/02 00:45:07;;;;;;;10.52;6.80;;;;;;;;;;5029607;28;20073;-67
2022/05/02 00:47:33;;;;;;;10.43;6.60;;;;;;;;;;5027614;28;20408;-67
2022/05/02 00:49:59;;;;;;;9.55;6.82;;;;;;;;;;5005795;28;20082;-67
2022/05/02 00:52:25;;;;;;;13.95;7.20;;;;;;;;;;5027769;28;20477;-67
2022/05/02 00:54:51;;;;;;;13.25;7.18;;;;;;;;;;5034527;28;20489;-67
2022/05/02 00:57:17;;;;;;;11.43;7.53;;;;;;;;;;5020118;28;20520;-67
2022/05/02 00:59:44;;;;;;;10.27;7.55;;;;;;;;;;5020797;28;20050;-67
2022/05/02 01:02:12;;;;;;;12.02;7.38;;;;;;;;;;5024633;28;20052;-67
2022/05/02 01:04:38;;;;;;;11.13;7.13;;;;;;;;;;5026125;28;20033;-67
2022/05/02 01:07:11;;;;;;;9.13;6.75;;;;;;;;;;5000458;28;20041;-67
2022/05/02 01:09:45;;;;;;;10.75;7.38;;;;;;;;;;5024292;28;20053;-67
2022/05/02 01:12:21;;;;;;;10.25;7.30;;;;;;;;;;5042677;28;20049;-67
2022/05/02 01:14:49;;;;;;;10.65;7.40;;;;;;;;;;5034564;28;20041;-67
2022/05/02 01:17:16;;;;;;;10.23;7.60;;;;;;;;;;5022568;28;20036;-67
2022/05/02 01:19:43;;;;;;;10.25;7.93;;;;;;;;;;5032924;28;20036;-67
2022/05/02 01:22:09;;;;;;;10.40;7.75;;;;;;;;;;5019293;28;20045;-67
2022/05/02 01:24:42;;;;;;;11.73;8.23;;;;;;;;;;5019676;28;20050;-67
2022/05/02 01:27:10;;;;;;;11.07;8.27;;;;;;;;;;5023468;28;20088;-67
2022/05/02 01:29:36;;;;;;;11.63;8.10;;;;;;;;;;5017755;28;20044;-67
2022/05/02 01:32:06;;;;;;;12.02;7.93;;;;;;;;;;5008988;28;20044;-67
2022/05/02 01:34:32;;;;;;;10.80;8.00;;;;;;;;;;5026216;28;20091;-67
2022/05/02 01:36:58;;;;;;;10.05;7.35;;;;;;;;;;5020204;28;20045;-67
2022/05/02 01:39:25;;;;;;;10.65;7.63;;;;;;;;;;5024689;28;20037;-67
2022/05/02 01:41:51;;;;;;;10.95;7.68;;;;;;;;;;5028099;28;20044;-67
2022/05/02 01:44:17;;;;;;;12.43;8.40;;;;;;;;;;5021607;28;20525;-67
2022/05/02 01:46:44;;;;;;;11.75;8.18;;;;;;;;;;5030342;28;20051;-67
2022/05/02 01:49:10;;;;;;;13.73;7.85;;;;;;;;;;5018119;28;20138;-67
2022/05/02 01:51:36;;;;;;;12.15;8.10;;;;;;;;;;5021077;28;20051;-67
2022/05/02 01:54:02;;;;;;;10.52;8.35;;;;;;;;;;5021716;28;20616;-67
2022/05/02 01:56:28;;;;;;;9.90;7.63;;;;;;;;;;5034174;28;20072;-67
2022/05/02 01:58:55;;;;;;;10.55;8.38;;;;;;;;;;5025368;28;20110;-67
2022/05/02 02:01:21;;;;;;;12.65;8.45;;;;;;;;;;5028491;28;20393;-68
2022/05/02 02:03:47;;;;;;;12.20;7.90;;;;;;;;;;5024373;28;20033;-67
2022/05/02 02:06:13;;;;;;;12.27;8.18;;;;;;;;;;5020147;28;20040;-67
2022/05/02 02:08:39;;;;;;;10.27;8.13;;;;;;;;;;5003680;28;20037;-67
2022/05/02 02:11:06;;;;;;;10.50;7.68;;;;;;;;;;5009852;28;20153;-67
2022/05/02 02:13:33;;;;;;;11.57;8.20;;;;;;;;;;5023926;28;20056;-67
2022/05/02 02:15:59;;;;;;;11.27;8.50;;;;;;;;;;5018615;28;20036;-67
2022/05/02 02:18:25;;;;;;;12.68;9.10;;;;;;;;;;5018502;28;20040;-67
2022/05/02 02:20:53;;;;;;;11.88;8.43;;;;;;;;;;5003029;28;20088;-67
2022/05/02 02:23:19;;;;;;;12.63;8.27;;;;;;;;;;5019475;28;20048;-67
2022/05/02 02:25:46;;;;;;;12.98;8.50;;;;;;;;;;5025162;28;20056;-67
2022/05/02 02:28:15;;;;;;;10.15;8.60;;;;;;;;;;5033567;28;20041;-67
2022/05/02 02:30:42;;;;;;;11.13;8.40;;;;;;;;;;5029639;28;20457;-67
2022/05/02 02:33:08;;;;;;;12.52;8.90;;;;;;;;;;5020782;28;20128;-67
2022/05/02 02:35:34;;;;;;;10.70;8.60;;;;;;;;;;5027130;28;20416;-67
2022/05/02 02:38:02;;;;;;;13.77;8.73;;;;;;;;;;5022101;28;20091;-67
2022/05/02 02:40:28;;;;;;;10.15;8.60;;;;;;;;;;5018916;28;20045;-67
2022/05/02 02:42:54;;;;;;;10.48;7.95;;;;;;;;;;5016874;28;20037;-67
2022/05/02 02:45:20;;;;;;;11.57;9.10;;;;;;;;;;5040514;28;20382;-67
2022/05/02 02:47:46;;;;;;;17.20;9.95;;;;;;;;;;5022298;28;20481;-67
2022/05/02 02:50:12;;;;;;;12.98;9.38;;;;;;;;;;5021331;28;20391;-68
2022/05/02 02:52:38;;;;;;;10.68;9.07;;;;;;;;;;5016924;28;20087;-67
2022/05/02 02:55:05;;;;;;;12.82;9.10;;;;;;;;;;5020653;28;20037;-67
2022/05/02 02:57:31;;;;;;;13.25;8.82;;;;;;;;;;5019554;28;20041;-67
2022/05/02 02:59:57;;;;;;;13.38;8.90;;;;;;;;;;5019482;28;20128;-67
2022/05/02 03:02:23;;;;;;;12.38;9.90;;;;;;;;;;5016867;28;20498;-67
2022/05/02 03:07:34;;;;;;;17.13;9.75;;;;;;;;;;5025084;28;20103;-67
2022/05/02 03:10:00;;;;;;;12.30;9.30;;;;;;;;;;5029987;28;20053;-67
2022/05/02 03:12:27;;;;;;;13.88;9.80;;;;;;;;;;5021873;28;20557;-67
2022/05/02 03:14:53;;;;;;;12.80;9.02;;;;;;;;;;5034804;28;20392;-67
2022/05/02 03:17:19;;;;;;;12.02;9.15;;;;;;;;;;5024062;28;20116;-67
2022/05/02 03:19:45;;;;;;;13.38;9.68;;;;;;;;;;5018936;28;20080;-67
2022/05/02 03:22:11;;;;;;;14.65;10.48;;;;;;;;;;5019029;28;20041;-67
2022/05/02 03:24:38;;;;;;;13.77;10.13;;;;;;;;;;5003205;28;20038;-67
2022/05/02 03:27:04;;;;;;;14.93;10.27;;;;;;;;;;5017314;28;20062;-67
2022/05/02 03:29:30;;;;;;;14.60;10.55;;;;;;;;;;5021621;28;20054;-67
2022/05/02 03:31:56;;;;;;;12.98;9.52;;;;;;;;;;5023915;28;20053;-67
2022/05/02 03:34:22;;;;;;;13.60;9.93;;;;;;;;;;5019275;28;20041;-67
2022/05/02 03:36:48;;;;;;;12.73;9.90;;;;;;;;;;5021260;28;20041;-67
2022/05/02 03:39:14;;;;;;;13.35;9.55;;;;;;;;;;5014940;28;20099;-67
2022/05/02 03:41:40;;;;;;;14.82;10.00;;;;;;;;;;4999761;28;20042;-68
2022/05/02 03:44:06;;;;;;;12.50;9.38;;;;;;;;;;5027995;28;20574;-67
2022/05/02 03:46:33;;;;;;;16.00;11.20;;;;;;;;;;5023597;28;20032;-67
2022/05/02 03:49:00;;;;;;;15.35;10.65;;;;;;;;;;5001430;28;20041;-67
2022/05/02 03:51:27;;;;;;;14.23;10.98;;;;;;;;;;5021778;28;20043;-67
2022/05/02 03:53:53;;;;;;;16.45;11.32;;;;;;;;;;5025495;28;20046;-67
2022/05/02 03:56:19;;;;;;;13.57;10.07;;;;;;;;;;5014679;28;20045;-67
2022/05/02 03:58:45;;;;;;;14.38;10.63;;;;;;;;;;5020540;28;20045;-67
2022/05/02 04:01:11;;;;;;;17.20;11.50;;;;;;;;;;5022088;28;20079;-67
2022/05/02 04:03:37;;;;;;;15.27;11.75;;;;;;;;;;5019360;28;20033;-67
2022/05/02 04:06:03;;;;;;;14.30;11.30;;;;;;;;;;5025199;28;20095;-67
2022/05/02 04:08:29;;;;;;;14.85;9.85;;;;;;;;;;5017033;28;20540;-67
2022/05/02 04:10:55;;;;;;;14.00;10.50;;;;;;;;;;5024976;28;20041;-67
2022/05/02 04:13:21;;;;;;;13.88;10.90;;;;;;;;;;5022623;28;20053;-67
2022/05/02 04:15:49;;;;;;;17.42;10.77;;;;;;;;;;5005272;28;20064;-67
2022/05/02 04:18:15;;;;;;;16.60;11.35;;;;;;;;;;5000948;28;20038;-67
2022/05/02 04:20:41;;;;;;;15.43;11.48;;;;;;;;;;5021927;28;20045;-67
2022/05/02 04:23:07;;;;;;;15.63;10.80;;;;;;;;;;5019207;28;20033;-67
2022/05/02 04:25:33;;;;;;;16.77;11.38;;;;;;;;;;5030291;28;20068;-67
2022/05/02 04:27:59;;;;;;;15.45;11.57;;;;;;;;;;5043519;28;20057;-67
2022/05/02 04:30:25;;;;;;;14.48;10.40;;;;;;;;;;5024578;28;20052;-67
2022/05/02 04:32:51;;;;;;;17.48;11.95;;;;;;;;;;5013821;28;20045;-67
2022/05/02 04:35:17;;;;;;;14.50;10.88;;;;;;;;;;5025276;28;20055;-67
2022/05/02 04:37:44;;;;;;;14.95;11.13;;;;;;;;;;5029067;28;20128;-68
2022/05/02 04:40:10;;;;;;;16.92;12.50;;;;;;;;;;5029877;28;20053;-67
2022/05/02 04:42:37;;;;;;;17.00;12.35;;;;;;;;;;5015093;28;20048;-67
2022/05/02 04:45:04;;;;;;;18.63;12.35;;;;;;;;;;4997402;28;20041;-67
2022/05/02 04:47:30;;;;;;;18.48;13.13;;;;;;;;;;5014378;28;20435;-67
2022/05/02 04:49:56;;;;;;;17.42;11.82;;;;;;;;;;5020103;28;20069;-68
2022/05/02 04:52:22;;;;;;;16.25;12.85;;;;;;;;;;5013677;28;20044;-67
2022/05/02 04:54:48;;;;;;;15.68;11.80;;;;;;;;;;5014903;28;20504;-68
2022/05/02 04:57:15;;;;;;;17.02;11.93;;;;;;;;;;5014508;28;20469;-68
2022/05/02 04:59:41;;;;;;;17.15;11.82;;;;;;;;;;5015007;28;20053;-67
2022/05/02 05:02:07;;;;;;;19.08;11.90;;;;;;;;;;5032551;28;20050;-67
2022/05/02 05:04:33;;;;;;;16.90;11.68;;;;;;;;;;5028280;28;20120;-67
2022/05/02 05:06:59;;;;;;;15.18;11.18;;;;;;;;;;5023076;28;20040;-67
2022/05/02 05:09:25;;;;;;;15.10;11.77;;;;;;;;;;5018813;28;20091;-68
2022/05/02 05:11:51;;;;;;;20.02;12.45;;;;;;;;;;5018486;28;20073;-67
2022/05/02 05:17:47;;;;;;;16.45;11.48;;;;;;;;;;5003816;28;20081;-67
2022/05/02 05:20:13;;;;;;;14.52;10.85;;;;;;;;;;5034070;28;20053;-67
2022/05/02 05:22:59;;;;;;;20.33;11.77;;;;;;;;;;5024664;28;20045;-67
2022/05/02 05:25:34;;;;;;;15.45;11.68;;;;;;;;;;5022148;28;20045;-67
2022/05/02 05:28:08;;;;;;;17.57;12.13;;;;;;;;;;5024351;28;20052;-68
2022/05/02 05:30:38;;;;;;;17.42;12.18;;;;;;;;;;5027562;28;20173;-68
2022/05/02 05:33:19;;;;;;;18.55;12.52;;;;;;;;;;5027416;28;20064;-68
2022/05/02 05:36:00;;;;;;;17.88;12.43;;;;;;;;;;5027792;28;20033;-67
2022/05/02 05:38:32;;;;;;;17.65;11.88;;;;;;;;;;5027334;28;20067;-67
2022/05/02 05:41:07;;;;;;;16.25;12.38;;;;;;;;;;5026529;28;20044;-67
2022/05/02 05:43:42;;;;;;;17.20;12.35;;;;;;;;;;5009817;28;20510;-67
2022/05/02 05:46:08;;;;;;;16.37;11.90;;;;;;;;;;5016971;28;20409;-67
2022/05/02 05:48:47;;;;;;;20.88;13.18;;;;;;;;;;5011380;28;20284;-68
2022/05/02 05:51:25;;;;;;;22.42;13.20;;;;;;;;;;5018937;28;20048;-67
2022/05/02 05:53:51;;;;;;;20.52;13.05;;;;;;;;;;5032334;28;20045;-68
2022/05/02 05:56:23;;;;;;;16.33;12.68;;;;;;;;;;5023668;28;20135;-67
2022/05/02 05:59:04;;;;;;;16.65;12.45;;;;;;;;;;5025697;28;20051;-68
2022/05/02 06:01:43;;;;;;;19.55;12.52;;;;;;;;;;5024866;28;20405;-68
2022/05/02 06:04:09;;;;;;;17.50;12.30;;;;;;;;;;5019544;28;20099;-68
2022/05/02 06:06:36;;;;;;;17.55;12.48;;;;;;;;;;5019766;28;20048;-68
2022/05/02 06:09:03;;;;;;;22.70;13.02;;;;;;;;;;5021810;28;20033;-67
2022/05/02 06:11:29;;;;;;;16.40;12.00;;;;;;;;;;5016012;28;20049;-67
2022/05/02 06:13:57;;;;;;;18.23;12.77;;;;;;;;;;5019562;28;20041;-67
2022/05/02 06:19:25;;;;;;;15.27;11.57;;;;;;;;;;5022511;28;20065;-67
2022/05/02 06:21:51;;;;;;;18.95;12.68;;;;;;;;;;5019320;28;20042;-67
2022/05/02 06:24:17;;;;;;;16.33;12.80;;;;;;;;;;5018179;28;20053;-67
2022/05/02 06:26:45;;;;;;;19.15;12.57;;;;;;;;;;5025212;28;20400;-67
2022/05/02 06:29:12;;;;;;;19.58;13.32;;;;;;;;;;5019732;28;20049;-66
2022/05/02 06:31:44;;;;;;;16.27;12.60;;;;;;;;;;5046063;28;20378;-66
2022/05/02 06:34:10;;;;;;;17.73;13.27;;;;;;;;;;5025397;28;20440;-67
2022/05/02 06:36:36;;;;;;;18.63;12.43;;;;;;;;;;5021571;28;20498;-68
2022/05/02 06:39:08;;;;;;;18.70;12.23;;;;;;;;;;5024790;28;20041;-66
2022/05/02 06:41:43;;;;;;;15.07;12.02;;;;;;;;;;5020069;28;20087;-67
2022/05/02 06:44:14;;;;;;;17.92;12.50;;;;;;;;;;5015461;28;20509;-67
2022/05/02 06:46:47;;;;;;;18.20;12.80;;;;;;;;;;5025601;28;20116;-67
2022/05/02 06:49:13;;;;;;;15.50;12.27;;;;;;;;;;5018222;28;20072;-67
2022/05/02 06:51:40;;;;;;;19.20;12.93;;;;;;;;;;5018405;28;20473;-67
2022/05/02 06:54:19;;;;;;;16.98;12.38;;;;;;;;;;5019472;28;20056;-67
2022/05/02 06:56:48;;;;;;;15.93;12.60;;;;;;;;;;5061679;28;20040;-67
2022/05/02 06:59:14;;;;;;;18.40;13.07;;;;;;;;;;5015807;28;20048;-66
2022/05/02 07:01:46;;;;;;;17.98;13.55;;;;;;;;;;5028106;28;20482;-67
2022/05/02 07:04:15;;;;;;;15.88;12.70;;;;;;;;;;5024884;28;20033;-66
2022/05/02 07:06:41;;;;;;;16.00;12.80;;;;;;;;;;5001834;28;20033;-66
2022/05/02 07:09:10;;;;;;;18.38;12.23;;;;;;;;;;5016938;28;20084;-67
2022/05/02 07:11:57;;;;;;;15.90;12.13;;;;;;;;;;5016090;28;20034;-67
2022/05/02 07:14:23;;;;;;;15.18;11.63;;;;;;;;;;5043078;28;20052;-67
2022/05/02 07:16:50;;;;;;;16.35;11.20;;;;;;;;;;5022617;28;20057;-67
2022/05/02 07:19:30;;;;;;;14.82;11.18;;;;;;;;;;5021318;28;20049;-67
2022/05/02 07:22:02;;;;;;;17.95;10.90;;;;;;;;;;5018604;28;20087;-66
2022/05/02 07:24:35;;;;;;;15.57;11.32;;;;;;;;;;5018113;28;20479;-67
2022/05/02 07:27:15;;;;;;;14.32;12.00;;;;;;;;;;5018477;28;20088;-67
2022/05/02 07:29:43;;;;;;;15.95;12.07;;;;;;;;;;5017331;28;20068;-67
2022/05/02 07:32:10;;;;;;;16.60;12.07;;;;;;;;;;5024199;28;20091;-67
2022/05/02 07:34:39;;;;;;;14.95;11.70;;;;;;;;;;5018667;28;20041;-66
2022/05/02 07:37:05;;;;;;;16.25;10.60;;;;;;;;;;5022834;28;20049;-67
2022/05/02 07:39:32;;;;;;;14.65;10.85;;;;;;;;;;5017823;28;20045;-67
2022/05/02 07:42:04;;;;;;;13.57;10.95;;;;;;;;;;5020423;28;20088;-67
2022/05/02 07:44:33;;;;;;;14.00;10.43;;;;;;;;;;5005510;28;20037;-68
2022/05/02 07:47:01;;;;;;;13.90;11.13;;;;;;;;;;5024792;28;20567;-67
2022/05/02 07:49:28;;;;;;;14.20;10.23;;;;;;;;;;5040568;28;20040;-67
2022/05/02 07:51:57;;;;;;;12.40;10.38;;;;;;;;;;5014223;28;20049;-73
2022/05/02 07:54:25;;;;;;;14.95;10.52;;;;;;;;;;5017531;28;20056;-73
2022/05/02 07:56:52;;;;;;;14.80;11.55;;;;;;;;;;5017539;28;20045;-73
2022/05/02 07:59:20;;;;;;;14.45;11.70;;;;;;;;;;5021395;28;20041;-72
2022/05/02 08:01:46;;;;;;;10.98;9.52;;;;;;;;;;5039696;28;20107;-72
2022/05/02 08:04:13;;;;;;;13.90;10.32;;;;;;;;;;5022501;28;20041;-72
2022/05/02 08:06:43;;;;;;;14.15;10.05;;;;;;;;;;5027870;28;20119;-72
2022/05/02 08:09:34;;;;;;;12.13;10.02;;;;;;;;;;5029086;28;20501;-72
2022/05/02 08:12:19;;;;;;;13.80;10.35;;;;;;;;;;5023228;28;20647;-72
2022/05/02 08:15:05;;;;;;;12.10;10.48;;;;;;;;;;5007800;28;20103;-73
2022/05/02 08:17:47;;;;;;;14.18;9.38;;;;;;;;;;5019372;28;20053;-72
2022/05/02 08:20:13;;;;;;;11.77;9.38;;;;;;;;;;5019522;28;21732;-73
2022/05/02 08:28:32;;;;;;;10.18;9.05;;;;;;;;;;5015768;28;20049;-74
2022/05/02 08:31:02;;;;;;;12.48;9.40;;;;;;;;;;5023706;28;20144;-72
2022/05/02 08:33:30;;;;;;;12.27;8.85;;;;;;;;;;5020672;28;20484;-73
2022/05/02 08:36:00;;;;;;;14.82;8.80;;;;;;;;;;5024268;28;20097;-73
2022/05/02 08:38:40;;;;;;;10.13;8.38;;;;;;;;;;5020565;28;20083;-73
2022/05/02 08:41:09;;;;;;;12.25;9.05;;;;;;;;;;5024193;28;20056;-73
2022/05/02 08:43:46;;;;;;;11.57;8.55;;;;;;;;;;5018877;28;20086;-73
2022/05/02 08:46:24;;;;;;;12.13;7.50;;;;;;;;;;5024281;28;20041;-73
2022/05/02 08:49:32;;;;;;;11.80;6.68;;;;;;;;;;5047345;28;20047;-73
2022/05/02 08:51:39;;;;;;;8.75;6.53;;;;;;;;;;5029286;28;20067;-73
2022/05/02 08:54:05;;;;;;;11.43;6.95;;;;;;;;;;5020400;28;20056;-73
2022/05/02 08:56:50;;;;;;;11.43;7.85;;;;;;;;;;5025104;28;20052;-73
2022/05/02 08:59:29;;;;;;;8.60;7.25;;;;;;;;;;5007626;28;20037;-72
2022/05/02 09:02:13;;;;;;;12.77;7.70;;;;;;;;;;5023660;28;20037;-72
2022/05/02 09:04:58;;;;;;;9.05;6.95;;;;;;;;;;5024161;28;20037;-73
2022/05/02 09:07:39;;;;;;;10.18;7.43;;;;;;;;;;5024267;28;20060;-74
2022/05/02 09:10:23;;;;;;;9.15;7.22;;;;;;;;;;5028785;28;20045;-74
2022/05/02 09:13:07;;;;;;;9.52;7.13;;;;;;;;;;5022530;28;20107;-74
2022/05/02 09:15:53;;;;;;;11.65;7.05;;;;;;;;;;5022762;28;20033;-74
2022/05/02 09:18:31;;;;;;;10.20;7.80;;;;;;;;;;5022130;28;20128;-74
2022/05/02 09:20:57;;;;;;;9.25;7.68;;;;;;;;;;5021139;28;20042;-74
2022/05/02 09:23:29;;;;;;;11.27;7.35;;;;;;;;;;5021866;28;20079;-74
2022/05/02 09:25:57;;;;;;;9.63;7.30;;;;;;;;;;5027000;28;20068;-74
2022/05/02 09:28:24;;;;;;;10.48;7.28;;;;;;;;;;5028034;28;20056;-75
2022/05/02 09:30:50;;;;;;;8.25;6.78;;;;;;;;;;5025975;28;20111;-75
2022/05/02 09:33:16;;;;;;;10.18;6.55;;;;;;;;;;5008664;28;20037;-74
2022/05/02 09:35:52;;;;;;;10.63;6.63;;;;;;;;;;5022525;28;20033;-74
2022/05/02 09:38:18;;;;;;;14.57;6.68;;;;;;;;;;5021186;28;20053;-74
2022/05/02 09:40:44;;;;;;;8.88;6.80;;;;;;;;;;5021754;28;20386;-75
2022/05/02 09:43:25;;;;;;;7.22;5.90;;;;;;;;;;5043594;28;20434;-74
2022/05/02 09:51:39;;;;;;;10.13;6.32;;;;;;;;;;5024443;28;20338;-73
2022/05/02 09:56:37;;;;;;;9.25;7.30;;;;;;;;;;5020327;28;20049;-72
2022/05/02 09:57:14;;;;;;;8.98;7.03;;;;;;;;;;5022428;28;20059;-72
2022/05/02 09:59:44;;;;;;;8.48;6.88;;;;;;;;;;5024921;28;20451;-72
2022/05/02 10:02:19;;;;;;;13.63;6.22;;;;;;;;;;5041631;28;20064;-72
2022/05/02 10:04:56;;;;;;;9.02;6.43;;;;;;;;;;5023851;28;20060;-72
2022/05/02 10:07:24;;;;;;;10.48;6.40;;;;;;;;;;5038529;28;20041;-72
2022/05/02 10:09:53;;;;;;;12.35;7.63;;;;;;;;;;5046733;28;20116;-72
2022/05/02 10:12:19;;;;;;;9.82;6.65;;;;;;;;;;5041511;28;20033;-72
2022/05/02 10:15:09;;;;;;;10.38;6.97;;;;;;;;;;5018160;28;20421;-72
2022/05/02 10:17:35;;;;;;;10.55;6.72;;;;;;;;;;5018470;28;20037;-72
2022/05/02 10:20:18;;;;;;;10.88;6.63;;;;;;;;;;5016716;28;20056;-71
2022/05/02 10:22:50;;;;;;;9.25;6.20;;;;;;;;;;5024945;28;20079;-72
2022/05/02 10:25:16;;;;;;;10.65;6.65;;;;;;;;;;5025868;28;20116;-72
2022/05/02 10:27:42;;;;;;;11.05;6.78;;;;;;;;;;5021208;28;20045;-73
2022/05/02 10:30:11;;;;;;;11.90;6.75;;;;;;;;;;5018329;28;20042;-72
2022/05/02 10:32:49;;;;;;;7.78;6.40;;;;;;;;;;5018072;28;20396;-72
2022/05/02 10:35:17;;;;;;;10.88;7.70;;;;;;;;;;5024735;28;20037;-72
2022/05/02 10:37:53;;;;;;;10.15;7.40;;;;;;;;;;5004055;28;20095;-72
2022/05/02 10:40:24;;;;;;;10.63;6.25;;;;;;;;;;5019831;28;20052;-73
2022/05/02 10:42:53;;;;;;;8.82;6.05;;;;;;;;;;5026111;28;20048;-72
2022/05/02 10:45:19;;;;;;;9.45;6.28;;;;;;;;;;5019072;28;20091;-72
2022/05/02 10:47:52;;;;;;;10.95;6.40;;;;;;;;;;5018355;28;20052;-72
2022/05/02 10:50:19;;;;;;;10.45;6.38;;;;;;;;;;5042674;28;20116;-72
2022/05/02 10:52:49;;;;;;;9.35;6.47;;;;;;;;;;5041139;28;20444;-73
2022/05/02 10:55:31;;;;;;;10.63;6.50;;;;;;;;;;5023203;28;20140;-73
2022/05/02 10:58:02;;;;;;;7.97;5.57;;;;;;;;;;5021535;28;20045;-72
2022/05/02 11:00:28;;;;;;;6.45;5.32;;;;;;;;;;5042364;28;20043;-72
2022/05/02 11:03:15;;;;;;;8.70;6.30;;;;;;;;;;5027760;28;20171;-72
2022/05/02 11:05:46;;;;;;;8.27;5.50;;;;;;;;;;5019335;28;20043;-72
2022/05/02 11:08:12;;;;;;;8.13;6.13;;;;;;;;;;5031092;28;20148;-73
2022/05/02 11:10:52;;;;;;;8.18;5.75;;;;;;;;;;5023681;28;20603;-71
2022/05/02 11:13:27;;;;;;;11.38;5.93;;;;;;;;;;5020620;28;20045;-72
2022/05/02 11:15:53;;;;;;;9.77;5.88;;;;;;;;;;5004725;28;20136;-72
2022/05/02 11:21:41;;;;;;;10.85;5.80;;;;;;;;;;5025703;28;20087;-72
2022/05/02 11:24:26;;;;;;;9.07;5.28;;;;;;;;;;5022017;28;20052;-72
2022/05/02 11:27:07;;;;;;;15.68;6.28;;;;;;;;;;5019399;28;20060;-72
2022/05/02 11:29:52;;;;;;;9.32;5.30;;;;;;;;;;5018811;28;20045;-72
2022/05/02 11:32:28;;;;;;;6.93;4.90;;;;;;;;;;5000606;28;20127;-72
2022/05/02 11:34:54;;;;;;;8.55;4.68;;;;;;;;;;5031300;28;20037;-72
2022/05/02 11:37:39;;;;;;;6.60;4.22;;;;;;;;;;5026228;28;20049;-72
2022/05/02 11:40:10;;;;;;;6.80;5.20;;;;;;;;;;5016402;28;20033;-72
2022/05/02 11:42:41;;;;;;;5.75;4.50;;;;;;;;;;5019357;28;20057;-72
2022/05/02 11:45:10;;;;;;;6.25;4.40;;;;;;;;;;5020614;28;20060;-72
2022/05/02 11:47:48;;;;;;;6.55;4.97;;;;;;;;;;5038624;28;20078;-72
2022/05/02 11:50:18;;;;;;;8.23;4.70;;;;;;;;;;5019820;28;20052;-72
2022/05/02 11:52:48;;;;;;;8.88;5.40;;;;;;;;;;5019947;28;20076;-72
2022/05/02 11:55:14;;;;;;;7.28;5.22;;;;;;;;;;5013272;28;20048;-72
2022/05/02 11:57:44;;;;;;;14.85;5.22;;;;;;;;;;5018384;28;20056;-72
2022/05/02 12:00:12;;;;;;;6.63;4.63;;;;;;;;;;5036484;28;20033;-72
2022/05/02 12:02:38;;;;;;;8.48;5.70;;;;;;;;;;5022772;28;20694;-72
2022/05/02 12:05:21;;;;;;;7.50;4.80;;;;;;;;;;5021440;28;20089;-72
2022/05/02 12:07:51;;;;;;;6.80;4.60;;;;;;;;;;5030553;28;20045;-72
2022/05/02 12:10:18;;;;;;;5.85;4.40;;;;;;;;;;5021191;28;20132;-72
2022/05/02 12:12:49;;;;;;;8.55;5.20;;;;;;;;;;5018887;28;20800;-72
2022/05/02 12:15:15;;;;;;;6.28;4.93;;;;;;;;;;5027441;28;20052;-72
2022/05/02 12:17:52;;;;;;;8.13;5.50;;;;;;;;;;5020686;28;20060;-71
2022/05/02 12:20:25;;;;;;;5.85;4.75;;;;;;;;;;5021986;28;20056;-71
2022/05/02 12:23:06;;;;;;;8.23;5.38;;;;;;;;;;5024511;28;20060;-70
2022/05/02 12:25:33;;;;;;;9.27;5.43;;;;;;;;;;5022533;28;20057;-71
2022/05/02 12:28:03;;;;;;;8.57;5.60;;;;;;;;;;5045832;28;20052;-70
2022/05/02 12:30:30;;;;;;;9.35;5.55;;;;;;;;;;5043531;28;20046;-71
2022/05/02 12:33:00;;;;;;;7.90;5.05;;;;;;;;;;5020019;28;20050;-70
2022/05/02 12:35:27;;;;;;;7.38;5.40;;;;;;;;;;5022019;28;20033;-71
2022/05/02 12:37:53;;;;;;;8.25;5.97;;;;;;;;;;5024820;28;20482;-71
2022/05/02 12:40:23;;;;;;;7.30;5.78;;;;;;;;;;5021482;28;20044;-71
2022/05/02 12:42:55;;;;;;;6.30;4.70;;;;;;;;;;5032003;28;20079;-71
2022/05/02 12:45:23;;;;;;;9.45;5.68;;;;;;;;;;5028866;28;20045;-71
2022/05/02 12:48:07;;;;;;;7.15;5.50;;;;;;;;;;5026119;28;20051;-70
2022/05/02 12:50:42;;;;;;;8.73;5.20;;;;;;;;;;5022144;28;20049;-71
2022/05/02 12:53:17;;;;;;;6.85;4.68;;;;;;;;;;5021084;28;20057;-71
2022/05/02 12:55:45;;;;;;;6.57;5.53;;;;;;;;;;5019136;28;20037;-71
2022/05/02 13:01:01;;;;;;;9.05;5.70;;;;;;;;;;5036522;28;20042;-70
2022/05/02 13:03:28;;;;;;;9.45;5.43;;;;;;;;;;5024222;28;20081;-71
2022/05/02 13:05:55;;;;;;;6.90;4.82;;;;;;;;;;5021672;28;20045;-71
2022/05/02 13:08:42;;;;;;;7.00;5.38;;;;;;;;;;5037798;28;20359;-71
2022/05/02 13:11:08;;;;;;;;;;;;;;;;;;5005702;28;20071;-70
2022/05/02 13:13:41;;;;;;;8.00;5.90;;;;;;;;;;5034447;28;19924;-71
2022/05/02 13:16:18;;;;;;;8.32;5.10;;;;;;;;;;5016708;28;20069;-70
2022/05/02 13:18:50;;;;;;;7.00;5.15;;;;;;;;;;5022167;28;20152;-72
2022/05/02 13:21:18;;;;;;;8.35;5.25;;;;;;;;;;5037432;28;20048;-70
2022/05/02 13:23:45;;;;;;;6.68;4.80;;;;;;;;;;5018251;28;20037;-71
2022/05/02 13:26:14;;;;;;;8.60;5.95;;;;;;;;;;5027770;28;20076;-71
2022/05/02 13:28:59;;;;;;;9.48;5.38;;;;;;;;;;5028198;28;20110;-68
2022/05/02 13:31:46;;;;;;;6.57;4.75;;;;;;;;;;5020306;28;20085;-71
2022/05/02 13:34:30;;;;;;;7.18;5.28;;;;;;;;;;5042457;28;20513;-71
2022/05/02 13:37:03;;;;;;;7.90;5.05;;;;;;;;;;5036152;28;20117;-70
2022/05/02 13:39:49;;;;;;;8.98;5.00;;;;;;;;;;5042279;28;20041;-72
2022/05/02 13:42:35;;;;;;;8.55;5.15;;;;;;;;;;5008422;28;20127;-71
2022/05/02 13:45:03;;;;;;;8.02;5.85;;;;;;;;;;5019045;28;20053;-70
2022/05/02 13:47:35;;;;;;;7.90;5.15;;;;;;;;;;5025411;28;20488;-71
2022/05/02 13:50:12;;;;;;;7.97;5.47;;;;;;;;;;5035415;28;20045;-71
2022/05/02 13:52:38;;;;;;;7.78;5.85;;;;;;;;;;5020311;28;20408;-71
2022/05/02 13:55:06;;;;;;;8.60;5.53;;;;;;;;;;5018212;28;20053;-71
2022/05/02 13:57:55;;;;;;;7.55;5.55;;;;;;;;;;5021433;28;20199;-71
2022/05/02 14:03:30;;;;;;;7.75;4.68;;;;;;;;;;5024136;28;20058;-71
2022/05/02 14:05:59;;;;;;;8.50;4.95;;;;;;;;;;5020304;28;20045;-64
2022/05/02 14:08:39;;;;;;;5.38;4.75;;;;;;;;;;5044916;28;20944;-65
2022/05/02 14:11:06;;;;;;;7.82;5.43;;;;;;;;;;5024631;28;20473;-70
2022/05/02 14:13:32;;;;;;;7.22;5.13;;;;;;;;;;5001650;28;20045;-70
2022/05/02 14:16:08;;;;;;;14.32;5.65;;;;;;;;;;5020484;28;20045;-70
2022/05/02 14:18:46;;;;;;;7.85;5.03;;;;;;;;;;5019222;28;20045;-70
2022/05/02 14:21:13;;;;;;;8.07;5.00;;;;;;;;;;5022031;28;20117;-69
2022/05/02 14:23:49;;;;;;;10.55;4.93;;;;;;;;;;5027787;28;20037;-70
2022/05/02 14:26:15;;;;;;;6.45;4.70;;;;;;;;;;5025658;28;20113;-70
2022/05/02 14:28:45;;;;;;;5.68;4.78;;;;;;;;;;5024451;28;20041;-70
2022/05/02 14:31:12;;;;;;;8.85;4.65;;;;;;;;;;5021818;28;20040;-70
2022/05/02 14:33:39;;;;;;;5.68;4.38;;;;;;;;;;5027095;28;20053;-70
2022/05/02 14:36:10;;;;;;;7.18;4.63;;;;;;;;;;5036329;28;20048;-70
2022/05/02 14:38:37;;;;;;;6.47;4.50;;;;;;;;;;5037241;28;20497;-70
2022/05/02 14:41:03;;;;;;;4.88;4.10;;;;;;;;;;5023840;28;20036;-70
2022/05/02 14:43:29;;;;;;;6.90;4.68;;;;;;;;;;5021647;28;20075;-70
2022/05/02 14:45:55;;;;;;;6.88;4.35;;;;;;;;;;5025423;28;20033;-70
2022/05/02 14:48:22;;;;;;;5.05;4.20;;;;;;;;;;5021620;28;20037;-70
2022/05/02 14:50:49;;;;;;;6.78;3.80;;;;;;;;;;5023254;28;20032;-70
2022/05/02 14:53:17;;;;;;;6.97;4.07;;;;;;;;;;5042161;28;20038;-70
2022/05/02 14:55:47;;;;;;;7.47;4.43;;;;;;;;;;5023847;28;20079;-70
2022/05/02 14:58:18;;;;;;;4.90;4.07;;;;;;;;;;5025372;28;20441;-70
2022/05/02 15:00:49;;;;;;;6.07;3.50;;;;;;;;;;5038653;28;20044;-70
2022/05/02 15:03:16;;;;;;;6.22;4.18;;;;;;;;;;5019070;28;20048;-70
2022/05/02 15:05:43;;;;;;;5.97;4.00;;;;;;;;;;5009152;28;20041;-70
2022/05/02 15:08:23;;;;;;;6.55;3.92;;;;;;;;;;5040878;28;20061;-70
2022/05/02 15:10:54;;;;;;;5.38;4.05;;;;;;;;;;5022795;28;20483;-70
2022/05/02 15:13:40;;;;;;;6.72;4.38;;;;;;;;;;5024747;28;20532;-70
2022/05/02 15:16:26;;;;;;;5.87;4.00;;;;;;;;;;5038921;28;20043;-70
2022/05/02 15:22:11;;;;;;;5.45;3.80;;;;;;;;;;5021062;28;20244;-69